Map

Track Data

SID SEASON NUMBER BASIN SUBBASIN NAME ISO_TIME NATURE LAT LON WMO_WIND WMO_PRES WMO_AGENCY TRACK_TYPE DIST2LAND LANDFALL IFLAG USA_AGENCY USA_ATCF_ID USA_LAT USA_LON USA_RECORD USA_STATUS USA_WIND USA_PRES USA_SSHS USA_R34_NE USA_R34_SE USA_R34_SW USA_R34_NW USA_R50_NE USA_R50_SE USA_R50_SW USA_R50_NW USA_R64_NE USA_R64_SE USA_R64_SW USA_R64_NW USA_POCI USA_ROCI USA_RMW USA_EYE TOKYO_LAT TOKYO_LON TOKYO_GRADE TOKYO_WIND TOKYO_PRES TOKYO_R50_DIR TOKYO_R50_LONG TOKYO_R50_SHORT TOKYO_R30_DIR TOKYO_R30_LONG TOKYO_R30_SHORT TOKYO_LAND CMA_LAT CMA_LON CMA_CAT CMA_WIND CMA_PRES HKO_LAT HKO_LON HKO_CAT HKO_WIND HKO_PRES NEWDELHI_LAT NEWDELHI_LON NEWDELHI_GRADE NEWDELHI_WIND NEWDELHI_PRES NEWDELHI_CI NEWDELHI_DP NEWDELHI_POCI REUNION_LAT REUNION_LON REUNION_TYPE REUNION_WIND REUNION_PRES REUNION_TNUM REUNION_CI REUNION_RMW REUNION_R34_NE REUNION_R34_SE REUNION_R34_SW REUNION_R34_NW REUNION_R50_NE REUNION_R50_SE REUNION_R50_SW REUNION_R50_NW REUNION_R64_NE REUNION_R64_SE REUNION_R64_SW REUNION_R64_NW BOM_LAT BOM_LON BOM_TYPE BOM_WIND BOM_PRES BOM_TNUM BOM_CI BOM_RMW BOM_R34_NE BOM_R34_SE BOM_R34_SW BOM_R34_NW BOM_R50_NE BOM_R50_SE BOM_R50_SW BOM_R50_NW BOM_R64_NE BOM_R64_SE BOM_R64_SW BOM_R64_NW BOM_ROCI BOM_POCI BOM_EYE BOM_POS_METHOD BOM_PRES_METHOD NADI_LAT NADI_LON NADI_CAT NADI_WIND NADI_PRES WELLINGTON_LAT WELLINGTON_LON WELLINGTON_WIND WELLINGTON_PRES DS824_LAT DS824_LON DS824_STAGE DS824_WIND DS824_PRES TD9636_LAT TD9636_LON TD9636_STAGE TD9636_WIND TD9636_PRES TD9635_LAT TD9635_LON TD9635_WIND TD9635_PRES TD9635_ROCI NEUMANN_LAT NEUMANN_LON NEUMANN_CLASS NEUMANN_WIND NEUMANN_PRES MLC_LAT MLC_LON MLC_CLASS MLC_WIND MLC_PRES USA_GUST BOM_GUST BOM_GUST_PER REUNION_GUST REUNION_GUST_PER USA_SEAHGT USA_SEARAD_NE USA_SEARAD_SE USA_SEARAD_SW USA_SEARAD_NW STORM_SPEED STORM_DIR
1950255N21090 1950 77 NI BB NOT_NAMED 1950-09-11 18:00:00 TS 20.7000 89.9000 main 123 119 O________O____ jtwc_io IO131950 20.7000 89.9000 -1 20.7000 89.9000 TC 2 268
1950255N21090 1950 77 NI BB NOT_NAMED 1950-09-11 21:00:00 TS 20.6975 89.8150 main 119 116 P________P____ IO131950 20.6975 89.8150 -1 20.6975 89.8150 TC 2 270
1950255N21090 1950 77 NI BB NOT_NAMED 1950-09-12 00:00:00 TS 20.7000 89.7000 main 116 108 O________O____ jtwc_io IO131950 20.7000 89.7000 -1 20.7000 89.7000 TC 25 3 272
1950255N21090 1950 77 NI BB NOT_NAMED 1950-09-12 03:00:00 TS 20.7066 89.5267 main 108 102 P________PO___ IO131950 20.7075 89.5300 -1 20.7075 89.5300 TC 25 20.7000 89.5000 1 4 269
1950255N21090 1950 77 NI BB NOT_NAMED 1950-09-12 06:00:00 TS 20.6907 89.2853 main 102 100 O________OP___ jtwc_io IO131950 20.7000 89.3000 -1 20.7000 89.3000 TC 25 20.6537 89.2264 1 5 263
1950255N21090 1950 77 NI BB NOT_NAMED 1950-09-12 09:00:00 TS 20.6407 88.9897 main 111 111 P________PP___ IO131950 20.6501 88.9999 -1 20.6501 88.9999 TC 30 20.6156 88.9624 1 6 260
1950255N21090 1950 77 NI BB NOT_NAMED 1950-09-12 12:00:00 TS 20.5983 88.7057 main 113 111 O________OP___ jtwc_io IO131950 20.6000 88.7000 -1 20.6000 88.7000 TC 35 20.5948 88.7171 1 5 263
1950255N21090 1950 77 NI BB NOT_NAMED 1950-09-12 15:00:00 TS 20.5849 88.4900 main 111 111 P________PO___ IO131950 20.5774 88.4850 -1 20.5774 88.4850 TC 35 20.6000 88.5000 2 4 272
1950255N21090 1950 77 NI BB NOT_NAMED 1950-09-12 18:00:00 TS 20.6126 88.3047 main 111 100 O________OP___ jtwc_io IO131950 20.6000 88.3000 -1 20.6000 88.3000 TC 35 20.6377 88.3140 2 4 287
1950255N21090 1950 77 NI BB NOT_NAMED 1950-09-12 21:00:00 TS 20.6914 88.1174 main 101 91 P________PP___ IO131950 20.6849 88.1075 -1 20.6849 88.1075 TC 35 20.7043 88.1373 2 4 297
1950255N21090 1950 77 NI BB NOT_NAMED 1950-09-13 00:00:00 TS 20.7979 87.9140 main 93 73 O________OP___ jtwc_io IO131950 20.8000 87.9000 -1 20.8000 87.9000 TC 35 20.7938 87.9420 2 5 297
1950255N21090 1950 77 NI BB NOT_NAMED 1950-09-13 03:00:00 TS 20.8949 87.6866 main 73 47 P________PO___ IO131950 20.8924 87.6799 -1 20.8924 87.6799 TC 35 20.9000 87.7000 3 5 293
1950255N21090 1950 77 NI BB NOT_NAMED 1950-09-13 06:00:00 TS 21.0050 87.3878 main 47 20 O________OP___ jtwc_io IO131950 21.0000 87.4000 -1 21.0000 87.4000 TC 35 21.0151 87.3634 3 7 292
1950255N21090 1950 77 NI BB NOT_NAMED 1950-09-13 09:00:00 TS 21.1477 87.0035 main 20 0 P________PP___ IO131950 21.1501 87.0151 -1 21.1501 87.0151 TC 30 21.1430 86.9804 3 8 291
1950255N21090 1950 77 NI BB NOT_NAMED 1950-09-13 12:00:00 TS 21.2915 86.5940 main 0 0 O________OP___ jtwc_io IO131950 21.3000 86.6000 -1 21.3000 86.6000 TC 25 21.2744 86.5821 3 8 289
1950255N21090 1950 77 NI BB NOT_NAMED 1950-09-13 15:00:00 TS 21.4050 86.2183 main 0 0 P________PO___ IO131950 21.4075 86.2274 -1 21.4075 86.2274 TC 25 21.4000 86.2000 1 7 288
1950255N21090 1950 77 NI BB NOT_NAMED 1950-09-13 18:00:00 TS 21.4993 85.9075 main 0 0 O________OP___ jtwc_io IO131950 21.5000 85.9000 -1 21.5000 85.9000 TC 25 21.4980 85.9224 1 5 291
1950255N21090 1950 77 NI BB NOT_NAMED 1950-09-13 21:00:00 TS 21.5967 85.6679 main 0 0 P________PP___ IO131950 21.5997 85.6724 -1 21.5997 85.6724 TC 25 21.5909 85.6589 1 5 292
1950255N21090 1950 77 NI BB NOT_NAMED 1950-09-14 00:00:00 TS 21.6961 85.3887 main 0 0 O________OP___ jtwc_io IO131950 21.7000 85.4000 -1 21.7000 85.4000 TC 25 21.6884 85.3660 1 7 286
1950255N21090 1950 77 NI BB NOT_NAMED 1950-09-14 03:00:00 TS 21.7900 84.9632 main 0 0 P________PO___ IO131950 21.7851 84.9448 -1 21.7851 84.9448 TC 25 21.8000 85.0000 1 9 284
1950255N21090 1950 77 NI BB NOT_NAMED 1950-09-14 06:00:00 TS 21.9188 84.4349 main 0 0 O________OP___ jtwc_io IO131950 21.9000 84.4000 -1 21.9000 84.4000 TC 25 21.9564 84.5048 1 10 288
1950255N21090 1950 77 NI BB NOT_NAMED 1950-09-14 09:00:00 TS 22.1076 83.8880 main 0 0 P________PP___ IO131950 22.0998 83.8652 -1 22.0998 83.8652 TC 25 22.1231 83.9336 1 11 290
1950255N21090 1950 77 NI BB NOT_NAMED 1950-09-14 12:00:00 TS 22.2927 83.3068 main 0 0 O________OP___ jtwc_io IO131950 22.3000 83.3000 -1 22.3000 83.3000 TC 25 22.2782 83.3205 1 11 286
1950255N21090 1950 77 NI BB NOT_NAMED 1950-09-14 15:00:00 TS 22.4199 82.7050 main 0 0 P________PO___ IO131950 22.4299 82.7074 -1 22.4299 82.7074 TC 25 22.4000 82.7000 1 11 280
1950255N21090 1950 77 NI BB NOT_NAMED 1950-09-14 18:00:00 TS 22.4897 82.0960 main 0 0 O________OP___ jtwc_io IO131950 22.5000 82.1000 -1 22.5000 82.1000 TC 25 22.4692 82.0879 1 11 275
1950255N21090 1950 77 NI BB NOT_NAMED 1950-09-14 21:00:00 TS 22.5110 81.4788 main 0 0 P________PP___ IO131950 22.5150 81.4773 -1 22.5150 81.4773 TC 25 22.5029 81.4819 1 11 271
1950255N21090 1950 77 NI BB NOT_NAMED 1950-09-15 00:00:00 TS 22.5033 80.9033 main 0 0 O________OP___ jtwc_io IO131950 22.5000 80.9000 -1 22.5000 80.9000 TC 25 22.5100 80.9100 1 10 270
1950255N21090 1950 77 NI BB NOT_NAMED 1950-09-15 03:00:00 TS 22.5049 80.4084 main 0 0 P________PO___ IO131950 22.5073 80.4126 -1 22.5073 80.4126 TC 25 22.5000 80.4000 1 8 269
1950255N21090 1950 77 NI BB NOT_NAMED 1950-09-15 06:00:00 TS 22.4920 79.9950 main 0 0 O________OP___ jtwc_io IO131950 22.5000 80.0000 -1 22.5000 80.0000 TC 25 22.4761 79.9850 1 7 265
1950255N21090 1950 77 NI BB NOT_NAMED 1950-09-15 09:00:00 TS 22.4470 79.6290 main 0 0 P________PP___ IO131950 22.4499 79.6274 -1 22.4499 79.6274 TC 25 22.4411 79.6320 1 6 262
1950255N21090 1950 77 NI BB NOT_NAMED 1950-09-15 12:00:00 TS 22.4036 79.3044 main 0 0 O________OP___ jtwc_io IO131950 22.4000 79.3000 -1 22.4000 79.3000 TC 25 22.4107 79.3131 1 6 264
1950255N21090 1950 77 NI BB NOT_NAMED 1950-09-15 15:00:00 TS 22.3899 79.0000 main 0 0 P________PO___ IO131950 22.3849 79.0000 -1 22.3849 79.0000 TC 25 22.4000 79.0000 1 6 270
1950255N21090 1950 77 NI BB NOT_NAMED 1950-09-15 18:00:00 TS 22.4013 78.6846 main 0 0 O________OP___ jtwc_io IO131950 22.4000 78.7000 -1 22.4000 78.7000 TC 25 22.4038 78.6538 1 6 274
1950255N21090 1950 77 NI BB NOT_NAMED 1950-09-15 21:00:00 TS 22.4290 78.3456 main 0 0 P________PP___ IO131950 22.4274 78.3649 -1 22.4274 78.3649 TC 25 22.4321 78.3070 1 7 279
1950255N21090 1950 77 NI AS NOT_NAMED 1950-09-16 00:00:00 TS 22.4981 77.9856 main 0 0 O________OP___ jtwc_io IO131950 22.5000 78.0000 -1 22.5000 78.0000 TC 25 22.4944 77.9567 1 7 285
1950255N21090 1950 77 NI AS NOT_NAMED 1950-09-16 03:00:00 TS 22.6183 77.6000 main 0 0 P________PO___ IO131950 22.6275 77.6000 -1 22.6275 77.6000 TC 25 22.6000 77.6000 1 8 292
1950255N21090 1950 77 NI AS NOT_NAMED 1950-09-16 06:00:00 TS 22.7829 77.2067 main 0 0 O________OP___ jtwc_io IO131950 22.8000 77.2000 -1 22.8000 77.2000 TC 25 22.7488 77.2203 1 8 297
1950255N21090 1950 77 NI AS NOT_NAMED 1950-09-16 09:00:00 TS 22.9749 76.8450 main 0 0 P________PP___ IO131950 22.9923 76.8499 -1 22.9923 76.8499 TC 25 22.9401 76.8353 1 8 301
1950255N21090 1950 77 NI AS NOT_NAMED 1950-09-16 12:00:00 TS 23.1871 76.4859 main 0 0 O________OP___ jtwc_io IO131950 23.2000 76.5000 -1 23.2000 76.5000 TC 25 23.1613 76.4576 1 8 301
1950255N21090 1950 77 NI AS NOT_NAMED 1950-09-16 15:00:00 TS 23.3900 76.0949 main 0 0 P________PO___ IO131950 23.3851 76.0924 -1 23.3851 76.0924 TC 25 23.4000 76.1000 1 8 301
1950255N21090 1950 77 NI AS NOT_NAMED 1950-09-16 18:00:00 TS 23.6159 75.7167 main 0 0 O________OP___ jtwc_io IO131950 23.6000 75.7000 -1 23.6000 75.7000 TC 25 23.6477 75.7502 1 8 308
1950255N21090 1950 77 NI AS NOT_NAMED 1950-09-16 21:00:00 TS 23.9024 75.3885 main 0 0 P________PP___ IO131950 23.8999 75.3701 -1 23.8999 75.3701 TC 25 23.9074 75.4254 1 8 316
1950255N21090 1950 77 NI AS NOT_NAMED 1950-09-17 00:00:00 TS 24.1878 75.1126 main 0 0 O________OP___ jtwc_io IO131950 24.2000 75.1000 -1 24.2000 75.1000 TC 25 24.1634 75.1378 1 7 318
1950255N21090 1950 77 NI AS NOT_NAMED 1950-09-17 03:00:00 TS 24.4150 74.8799 main 0 0 P________PO___ IO131950 24.4225 74.8699 -1 24.4225 74.8699 TC 25 24.4000 74.9000 1 6 318
1950255N21090 1950 77 NI AS NOT_NAMED 1950-09-17 06:00:00 TS 24.5974 74.7026 main 0 0 O________OP___ jtwc_io IO131950 24.6000 74.7000 -1 24.6000 74.7000 TC 25 24.5922 74.7079 1 4 321
1950255N21090 1950 77 NI AS NOT_NAMED 1950-09-17 09:00:00 TS 24.7549 74.5789 main 0 0 P________PP___ IO131950 24.7500 74.5849 -1 24.7500 74.5849 TC 25 24.7646 74.5669 1 4 328
1950255N21090 1950 77 NI AS NOT_NAMED 1950-09-17 12:00:00 TS 24.9099 74.4892 main 0 0 O________OP___ jtwc_io IO131950 24.9000 74.5000 -1 24.9000 74.5000 TC 25 24.9298 74.4675 1 4 333
1950255N21090 1950 77 NI AS NOT_NAMED 1950-09-17 15:00:00 TS 25.0950 74.3900 main 0 0 P________PO___ IO131950 25.0925 74.3851 -1 25.0925 74.3851 TC 25 25.1000 74.4000 1 4 336
1950255N21090 1950 77 NI AS NOT_NAMED 1950-09-17 18:00:00 TS 25.2922 74.3060 main 0 0 O________OP___ jtwc_io IO131950 25.3000 74.3000 -1 25.3000 74.3000 TC 25 25.2765 74.3180 1 4 346
1950255N21090 1950 77 NI AS NOT_NAMED 1950-09-17 21:00:00 TS 25.4824 74.2793 main 0 0 P________PP___ IO131950 25.4925 74.2849 -1 25.4925 74.2849 TC 25 25.4623 74.2679 1 4 356
1950255N21090 1950 77 NI AS NOT_NAMED 1950-09-18 00:00:00 TS 25.6890 74.2863 main 0 0 O________OP___ jtwc_io IO131950 25.7000 74.3000 -1 25.7000 74.3000 TC 25 25.6671 74.2588 1 4 0
1950255N21090 1950 77 NI AS NOT_NAMED 1950-09-18 03:00:00 TS 25.9233 74.2851 main 0 0 P________PO___ IO131950 25.9350 74.2777 -1 25.9350 74.2777 TC 25 25.9000 74.3000 1 5 0
1950255N21090 1950 77 NI AS NOT_NAMED 1950-09-18 06:00:00 TS 26.1927 74.3038 main 0 0 O________OP___ jtwc_io IO131950 26.2000 74.3000 -1 26.2000 74.3000 TC 25 26.1781 74.3114 1 6 10
1950255N21090 1950 77 NI AS NOT_NAMED 1950-09-18 09:00:00 TS 26.4892 74.3932 main 0 0 P________PP___ IO131950 26.4924 74.3976 -1 26.4924 74.3976 TC 25 26.4827 74.3844 1 7 23
1950255N21090 1950 77 NI AS NOT_NAMED 1950-09-18 12:00:00 TS 26.7987 74.5883 main 0 0 O________OP___ jtwc_io IO131950 26.8000 74.6000 -1 26.8000 74.6000 TC 25 26.7961 74.5650 1 8 35
1950255N21090 1950 77 NI AS NOT_NAMED 1950-09-18 15:00:00 TS 27.1046 74.8736 main 0 0 P________PO___ IO131950 27.1070 74.8603 -1 27.1070 74.8603 TC 25 27.1000 74.9000 1 9 49
1950255N21090 1950 77 NI AS NOT_NAMED 1950-09-18 18:00:00 TS 27.3919 75.3482 main 0 0 O________OP___ jtwc_io IO131950 27.4000 75.3000 -1 27.4000 75.3000 TC 25 27.3796 75.4205 1 12 62
1950255N21090 1950 77 NI AS NOT_NAMED 1950-09-18 21:00:00 TS 27.6505 76.0283 main 0 0 P________PP___ IO131950 27.6614 75.9792 -1 27.6614 75.9792 TC 25 27.6359 76.0937 1 14 69
1950255N21090 1950 77 NI AS NOT_NAMED 1950-09-19 00:00:00 TS 27.8870 76.8351 main 0 0 O________OP___ jtwc_io IO131950 27.9000 76.8000 -1 27.9000 76.8000 TC 25 27.8740 76.8702 1 15 73
1950255N21090 1950 77 NI AS NOT_NAMED 1950-09-19 03:00:00 NR 28.1000 77.7000 main 0 __________O___ IO131950 -1 TC 28.1000 77.7000 1 16 74

About IBTrACS Database

This database is a web-friendly format of International Best Track Archive for Climate Stewardship (IBTrACS), a global best track data archive curated by NOAA dating back to 1842.

Updated: 2021-11-26